createdAt,value
2022-07-31T00:00:28.150Z,8.27
2022-07-31T00:02:55.389Z,9.13
2022-07-31T00:05:23.188Z,10.33
2022-07-31T00:07:50.358Z,9.20
2022-07-31T00:10:17.634Z,10.32
2022-07-31T00:12:44.946Z,9.70
2022-07-31T00:15:12.708Z,8.70
2022-07-31T00:17:40.703Z,9.43
2022-07-31T00:20:08.377Z,9.98
2022-07-31T00:22:35.599Z,8.75
2022-07-31T00:25:02.843Z,8.32
2022-07-31T00:27:30.083Z,11.40
2022-07-31T00:29:57.275Z,12.03
2022-07-31T00:32:24.559Z,10.68
2022-07-31T00:34:51.838Z,11.27
2022-07-31T00:37:19.282Z,14.13
2022-07-31T00:39:46.649Z,9.55
2022-07-31T00:42:24.150Z,11.10
2022-07-31T00:44:52.212Z,12.45
2022-07-31T00:47:24.024Z,13.30
2022-07-31T00:49:52.854Z,10.88
2022-07-31T00:52:20.099Z,10.40
2022-07-31T00:54:47.295Z,11.93
2022-07-31T00:57:15.325Z,10.98
2022-07-31T00:59:43.591Z,13.32
2022-07-31T01:02:11.119Z,12.15
2022-07-31T01:04:38.293Z,14.35
2022-07-31T01:07:08.923Z,13.13
2022-07-31T01:09:36.143Z,12.98
2022-07-31T01:12:22.198Z,11.77
2022-07-31T01:14:52.423Z,12.35
2022-07-31T01:17:21.701Z,10.88
2022-07-31T01:19:49.909Z,12.53
2022-07-31T01:22:35.988Z,11.55
2022-07-31T01:25:06.842Z,12.15
2022-07-31T01:27:52.614Z,12.82
2022-07-31T01:30:20.760Z,12.95
2022-07-31T01:32:49.966Z,12.10
2022-07-31T01:35:43.633Z,11.20
2022-07-31T01:38:15.543Z,11.82
2022-07-31T01:40:44.167Z,15.48
2022-07-31T01:43:20.098Z,12.25
2022-07-31T01:45:48.407Z,12.90
2022-07-31T01:48:17.116Z,14.27
2022-07-31T01:50:52.318Z,13.18
2022-07-31T01:53:20.591Z,13.90
2022-07-31T01:56:01.791Z,11.98
2022-07-31T01:58:33.190Z,13.53
2022-07-31T02:01:01.249Z,14.52
2022-07-31T02:03:44.245Z,12.32
2022-07-31T02:06:17.272Z,13.65
2022-07-31T02:08:48.547Z,13.93
2022-07-31T02:11:16.424Z,13.20
2022-07-31T02:13:44.236Z,14.02
2022-07-31T02:16:11.846Z,13.38
2022-07-31T02:18:38.946Z,13.63
2022-07-31T02:21:06.064Z,12.75
2022-07-31T02:23:33.202Z,12.50
2022-07-31T02:26:01.118Z,11.10
2022-07-31T02:28:28.966Z,14.25
2022-07-31T02:30:56.505Z,13.43
2022-07-31T02:33:25.006Z,13.45
2022-07-31T02:35:53.971Z,13.00
2022-07-31T02:38:23.141Z,12.70
2022-07-31T02:40:51.763Z,13.77
2022-07-31T02:43:19.662Z,13.00
2022-07-31T02:45:47.017Z,12.05
2022-07-31T02:48:14.167Z,12.37
2022-07-31T02:50:41.732Z,12.43
2022-07-31T02:53:08.995Z,14.18
2022-07-31T02:55:36.117Z,13.05
2022-07-31T02:58:06.476Z,13.80
2022-07-31T03:00:33.663Z,12.67
2022-07-31T03:03:00.813Z,15.50
2022-07-31T03:05:27.938Z,14.23
2022-07-31T03:07:55.075Z,12.95
2022-07-31T03:10:22.446Z,14.30
2022-07-31T03:12:51.667Z,14.73
2022-07-31T03:15:20.225Z,14.32
2022-07-31T03:17:47.871Z,11.60
2022-07-31T03:20:15.224Z,13.77
2022-07-31T03:22:42.992Z,13.85
2022-07-31T03:25:11.047Z,11.47
2022-07-31T03:27:55.628Z,13.15
2022-07-31T03:30:26.983Z,12.23
2022-07-31T03:32:54.806Z,12.60
2022-07-31T03:35:22.114Z,11.75
2022-07-31T03:37:49.549Z,11.60
2022-07-31T03:40:16.611Z,14.75
2022-07-31T03:42:44.095Z,13.05
2022-07-31T03:45:12.225Z,14.55
2022-07-31T03:47:39.380Z,14.60
2022-07-31T03:50:07.442Z,12.20
2022-07-31T03:52:34.586Z,14.00
2022-07-31T03:55:01.890Z,12.60
2022-07-31T03:57:31.217Z,11.93
2022-07-31T04:00:02.341Z,13.63
2022-07-31T04:02:30.412Z,12.33
2022-07-31T04:04:59.226Z,12.25
2022-07-31T04:07:26.493Z,11.98
2022-07-31T04:09:53.606Z,13.82
2022-07-31T04:12:20.694Z,13.55
2022-07-31T04:14:47.799Z,13.27
2022-07-31T04:17:14.871Z,12.05
2022-07-31T04:19:42.064Z,12.05
2022-07-31T04:22:09.582Z,14.48
2022-07-31T04:24:36.838Z,15.07
2022-07-31T04:27:08.145Z,16.10
2022-07-31T04:29:38.572Z,15.43
2022-07-31T04:32:06.085Z,16.67
2022-07-31T04:34:33.574Z,16.92
2022-07-31T04:37:00.717Z,17.15
2022-07-31T04:39:27.930Z,17.00
2022-07-31T04:41:56.034Z,16.33
2022-07-31T04:44:23.381Z,15.70
2022-07-31T04:46:50.582Z,18.08
2022-07-31T04:49:17.815Z,19.27
2022-07-31T04:51:44.929Z,16.20
2022-07-31T04:54:12.262Z,17.20
2022-07-31T04:56:42.448Z,16.25
2022-07-31T04:59:13.989Z,17.67
2022-07-31T05:01:42.118Z,16.70
2022-07-31T05:04:10.645Z,19.03
2022-07-31T05:06:38.727Z,16.60
2022-07-31T05:09:09.464Z,18.77
2022-07-31T05:11:38.649Z,17.35
2022-07-31T05:14:06.395Z,16.38
2022-07-31T05:16:33.842Z,16.40
2022-07-31T05:19:01.227Z,13.35
2022-07-31T05:21:30.457Z,13.70
2022-07-31T05:23:58.351Z,13.70
2022-07-31T05:26:25.979Z,13.90
2022-07-31T05:28:58.244Z,14.53
2022-07-31T05:31:26.307Z,13.75
2022-07-31T05:33:53.427Z,13.07
2022-07-31T05:36:20.625Z,16.55
2022-07-31T05:38:47.961Z,15.85
2022-07-31T05:41:15.545Z,12.53
2022-07-31T05:43:42.644Z,14.75
2022-07-31T05:46:09.810Z,14.82
2022-07-31T05:48:36.948Z,14.77
2022-07-31T05:51:05.758Z,15.02
2022-07-31T05:53:33.059Z,15.53
2022-07-31T05:56:00.183Z,14.68
2022-07-31T05:58:27.274Z,15.02
2022-07-31T06:00:54.426Z,13.57
2022-07-31T06:03:25.291Z,14.80
2022-07-31T06:05:52.552Z,16.83
2022-07-31T06:08:19.821Z,15.27
2022-07-31T06:10:46.952Z,14.27
2022-07-31T06:13:14.787Z,15.73
2022-07-31T06:15:49.324Z,14.77
2022-07-31T06:18:16.950Z,14.60
2022-07-31T06:20:44.093Z,15.65
2022-07-31T06:23:19.885Z,15.95
2022-07-31T06:25:50.460Z,19.05
2022-07-31T06:28:17.558Z,22.48
2022-07-31T06:30:44.699Z,20.33
2022-07-31T06:33:16.696Z,20.45
2022-07-31T06:35:58.899Z,19.52
2022-07-31T06:38:26.118Z,20.17
2022-07-31T06:40:53.180Z,17.65
2022-07-31T06:43:20.280Z,15.60
2022-07-31T06:45:52.187Z,15.65
2022-07-31T06:48:19.718Z,16.40
2022-07-31T06:50:47.784Z,15.73
2022-07-31T06:53:14.904Z,15.27
2022-07-31T06:55:44.329Z,16.73
2022-07-31T06:58:11.999Z,18.20
2022-07-31T07:00:39.086Z,18.02
2022-07-31T07:03:06.153Z,19.23
2022-07-31T07:05:33.219Z,19.60
2022-07-31T07:08:00.345Z,19.17
2022-07-31T07:10:27.453Z,19.08
2022-07-31T07:12:54.843Z,20.02
2022-07-31T07:15:21.923Z,19.38
2022-07-31T07:17:49.017Z,21.38
2022-07-31T07:20:16.142Z,18.77
2022-07-31T07:22:43.220Z,19.95
2022-07-31T07:25:10.578Z,20.63
2022-07-31T07:27:37.689Z,21.48
2022-07-31T07:30:05.095Z,17.67
2022-07-31T07:32:32.226Z,21.97
2022-07-31T07:35:00.441Z,21.92
2022-07-31T07:37:28.641Z,24.92
2022-07-31T07:39:55.889Z,21.55
2022-07-31T07:42:22.963Z,20.40
2022-07-31T07:44:50.055Z,20.53
2022-07-31T07:47:17.213Z,21.27
2022-07-31T07:49:44.324Z,23.13
2022-07-31T07:52:11.646Z,22.00
2022-07-31T07:54:39.032Z,20.48
2022-07-31T07:57:06.119Z,20.50
2022-07-31T07:59:33.274Z,23.98
2022-07-31T08:02:00.633Z,22.13
2022-07-31T08:04:27.847Z,23.98
2022-07-31T08:06:54.941Z,26.52
2022-07-31T08:09:23.137Z,25.60
2022-07-31T08:11:50.301Z,27.33
2022-07-31T08:14:17.413Z,21.13
2022-07-31T08:16:44.570Z,23.83
2022-07-31T08:19:11.636Z,21.88
2022-07-31T08:21:39.256Z,27.57
2022-07-31T08:24:07.486Z,25.25
2022-07-31T08:26:54.944Z,27.67
2022-07-31T08:29:28.721Z,29.80
2022-07-31T08:31:56.122Z,28.42
2022-07-31T08:34:31.557Z,32.40
2022-07-31T08:36:59.386Z,30.90
2022-07-31T08:39:47.743Z,29.65
2022-07-31T08:42:15.438Z,29.85
2022-07-31T08:44:43.192Z,37.30
2022-07-31T08:47:10.969Z,29.87
2022-07-31T08:49:40.850Z,30.50
2022-07-31T08:52:12.257Z,28.67
2022-07-31T08:54:43.627Z,31.40
2022-07-31T08:57:13.065Z,28.75
2022-07-31T08:59:43.658Z,28.47
2022-07-31T09:02:11.362Z,31.80
2022-07-31T09:04:38.962Z,25.67
2022-07-31T09:07:06.517Z,30.25
2022-07-31T09:09:50.266Z,28.27
2022-07-31T09:12:33.534Z,32.20
2022-07-31T09:15:01.566Z,27.95
2022-07-31T09:17:36.336Z,30.77
2022-07-31T09:20:05.656Z,27.83
2022-07-31T09:22:33.791Z,28.25
2022-07-31T09:25:08.688Z,27.73
2022-07-31T09:27:35.817Z,27.55
2022-07-31T09:30:02.891Z,29.35
2022-07-31T09:32:29.954Z,27.25
2022-07-31T09:35:07.078Z,28.50
2022-07-31T09:37:34.187Z,28.70
2022-07-31T09:40:01.287Z,28.80
2022-07-31T09:42:36.028Z,27.23
2022-07-31T09:45:05.543Z,28.70
2022-07-31T09:47:32.910Z,25.58
2022-07-31T09:50:01.242Z,25.60
2022-07-31T09:52:31.004Z,25.00
2022-07-31T09:55:16.017Z,24.55
2022-07-31T09:57:54.385Z,27.63
2022-07-31T10:00:21.666Z,25.95
2022-07-31T10:02:49.171Z,28.77
2022-07-31T10:05:17.148Z,29.10
2022-07-31T10:07:44.542Z,28.20
2022-07-31T10:10:12.186Z,28.77
2022-07-31T10:12:42.156Z,26.90
2022-07-31T10:15:16.950Z,26.23
2022-07-31T10:17:48.489Z,26.48
2022-07-31T10:20:17.420Z,25.67
2022-07-31T10:22:46.626Z,26.27
2022-07-31T10:25:22.767Z,25.52
2022-07-31T10:27:51.205Z,25.90
2022-07-31T10:30:18.396Z,26.42
2022-07-31T10:32:45.786Z,25.08
2022-07-31T10:35:13.323Z,26.75
2022-07-31T10:37:46.518Z,27.40
2022-07-31T10:40:20.738Z,26.10
2022-07-31T10:43:06.562Z,31.77
2022-07-31T10:45:33.635Z,27.88
2022-07-31T10:48:02.952Z,29.27
2022-07-31T10:50:30.485Z,28.33
2022-07-31T10:53:08.642Z,28.43
2022-07-31T10:55:35.750Z,26.85
2022-07-31T10:58:09.670Z,27.20
2022-07-31T11:00:36.806Z,28.50
2022-07-31T11:03:20.278Z,30.77
2022-07-31T11:06:00.920Z,29.00
2022-07-31T11:08:29.959Z,27.92
2022-07-31T11:10:57.846Z,30.55
2022-07-31T11:13:36.679Z,28.63
2022-07-31T11:16:05.331Z,29.92
2022-07-31T11:18:34.535Z,29.37
2022-07-31T11:21:13.578Z,27.55
2022-07-31T11:23:55.982Z,26.80
2022-07-31T11:26:33.304Z,25.17
2022-07-31T11:29:58.837Z,23.75
2022-07-31T11:31:56.349Z,23.77
2022-07-31T11:34:23.749Z,23.67
2022-07-31T11:37:05.139Z,27.13
2022-07-31T11:39:37.196Z,25.20
2022-07-31T11:42:07.597Z,21.70
2022-07-31T11:44:35.033Z,24.83
2022-07-31T11:47:02.672Z,23.80
2022-07-31T11:49:44.112Z,20.38
2022-07-31T11:52:31.212Z,21.30
2022-07-31T11:55:16.490Z,20.92
2022-07-31T11:57:52.319Z,21.40
2022-07-31T12:00:29.636Z,20.17
2022-07-31T12:02:59.609Z,18.58
2022-07-31T12:05:38.201Z,18.40
2022-07-31T12:08:06.766Z,15.90
2022-07-31T12:10:33.916Z,19.80
2022-07-31T12:13:04.119Z,17.90
2022-07-31T12:15:31.368Z,20.77
2022-07-31T12:18:02.968Z,17.45
2022-07-31T12:20:36.020Z,17.17
2022-07-31T12:23:04.685Z,19.73
2022-07-31T12:25:41.872Z,18.08
2022-07-31T12:28:09.755Z,16.15
2022-07-31T12:30:36.982Z,17.45
2022-07-31T12:33:10.831Z,15.82
2022-07-31T12:35:54.976Z,15.07
2022-07-31T12:38:40.639Z,14.90
2022-07-31T12:41:08.898Z,14.40
2022-07-31T12:43:38.015Z,13.55
2022-07-31T12:46:05.283Z,14.77
2022-07-31T12:48:38.465Z,15.43
2022-07-31T12:51:07.334Z,12.10
2022-07-31T12:53:34.435Z,16.85
2022-07-31T12:56:02.138Z,12.70
2022-07-31T12:58:29.335Z,13.02
2022-07-31T13:00:57.103Z,16.07
2022-07-31T13:03:39.005Z,12.75
2022-07-31T13:06:13.990Z,10.30
2022-07-31T13:08:43.617Z,11.07
2022-07-31T13:11:10.731Z,11.40
2022-07-31T13:13:37.814Z,11.30
2022-07-31T13:16:04.987Z,9.82
2022-07-31T13:18:32.727Z,11.23
2022-07-31T13:21:00.628Z,9.05
2022-07-31T13:23:27.954Z,10.45
2022-07-31T13:25:55.061Z,8.97
2022-07-31T13:28:22.156Z,9.82
2022-07-31T13:30:54.692Z,9.10
2022-07-31T13:33:22.259Z,8.30
2022-07-31T13:35:51.574Z,8.82
2022-07-31T13:38:18.694Z,8.27
2022-07-31T13:41:04.478Z,10.88
2022-07-31T13:43:31.627Z,7.63
2022-07-31T13:45:58.706Z,7.95
2022-07-31T13:48:25.767Z,6.53
2022-07-31T13:50:52.868Z,6.83
2022-07-31T13:53:19.998Z,6.50
2022-07-31T13:55:50.063Z,6.63
2022-07-31T13:58:17.680Z,6.78
2022-07-31T14:00:44.742Z,8.48
2022-07-31T14:03:12.877Z,8.70
2022-07-31T14:05:42.377Z,6.80
2022-07-31T14:08:33.261Z,6.07
2022-07-31T14:10:57.159Z,9.50
2022-07-31T14:13:24.605Z,6.53
2022-07-31T14:15:51.728Z,9.10
2022-07-31T14:18:18.918Z,6.43
2022-07-31T14:20:48.858Z,8.32
2022-07-31T14:23:15.946Z,6.38
2022-07-31T14:25:45.619Z,8.95
2022-07-31T14:28:12.751Z,9.73
2022-07-31T14:30:46.139Z,7.68
2022-07-31T14:33:14.373Z,7.55
2022-07-31T14:35:42.271Z,7.25
2022-07-31T14:38:09.625Z,10.95
2022-07-31T14:40:36.870Z,7.90
2022-07-31T14:43:04.367Z,8.63
2022-07-31T14:45:31.824Z,8.95
2022-07-31T14:48:06.539Z,7.47
2022-07-31T14:50:33.675Z,7.95
2022-07-31T14:53:00.852Z,8.37
2022-07-31T14:55:29.014Z,6.75
2022-07-31T14:57:56.197Z,8.95
2022-07-31T15:00:23.355Z,8.32
2022-07-31T15:02:50.502Z,8.50
2022-07-31T15:06:48.603Z,7.50
2022-07-31T15:08:04.758Z,10.15
2022-07-31T15:10:31.906Z,8.00
2022-07-31T15:13:01.901Z,7.05
2022-07-31T15:15:29.048Z,7.47
2022-07-31T15:17:59.223Z,8.50
2022-07-31T15:20:32.581Z,8.60
2022-07-31T15:23:00.316Z,8.20
2022-07-31T15:25:27.474Z,8.45
2022-07-31T15:27:54.529Z,7.97
2022-07-31T15:30:22.523Z,9.40
2022-07-31T15:32:49.633Z,9.82
2022-07-31T15:35:16.763Z,8.48
2022-07-31T15:37:44.799Z,9.25
2022-07-31T15:40:15.630Z,11.00
2022-07-31T15:42:43.331Z,9.40
2022-07-31T15:45:11.783Z,11.45
2022-07-31T15:47:39.218Z,12.50
2022-07-31T15:50:07.079Z,11.23
2022-07-31T15:52:34.175Z,11.13
2022-07-31T15:55:01.279Z,12.53
2022-07-31T15:57:28.426Z,14.20
2022-07-31T15:59:55.855Z,12.50
2022-07-31T16:02:23.742Z,13.15
2022-07-31T16:04:54.161Z,10.60
2022-07-31T16:08:34.722Z,9.50
2022-07-31T16:10:16.557Z,11.02
2022-07-31T16:12:48.162Z,9.50
2022-07-31T16:15:16.330Z,11.25
2022-07-31T16:17:43.876Z,10.68
2022-07-31T16:20:26.037Z,10.63
2022-07-31T16:22:55.823Z,10.07
2022-07-31T16:25:23.626Z,8.82
2022-07-31T16:27:50.713Z,10.15
2022-07-31T16:30:17.830Z,9.75
2022-07-31T16:32:45.345Z,11.00
2022-07-31T16:35:13.236Z,11.85
2022-07-31T16:37:51.624Z,7.30
2022-07-31T16:40:30.375Z,11.40
2022-07-31T16:43:00.861Z,10.70
2022-07-31T16:45:28.376Z,9.83
2022-07-31T16:47:55.462Z,10.65
2022-07-31T16:50:22.652Z,10.05
2022-07-31T16:52:54.272Z,9.77
2022-07-31T16:56:00.269Z,8.93
2022-07-31T16:58:11.049Z,10.40
2022-07-31T17:00:40.559Z,9.20
2022-07-31T17:03:58.574Z,11.05
2022-07-31T17:05:54.837Z,11.07
2022-07-31T17:08:22.162Z,8.70
2022-07-31T17:10:54.210Z,9.80
2022-07-31T17:13:22.169Z,10.27
2022-07-31T17:15:55.243Z,9.57
2022-07-31T17:18:25.062Z,10.82
2022-07-31T17:20:53.034Z,10.48
2022-07-31T17:23:43.218Z,12.53
2022-07-31T17:26:10.573Z,9.93
2022-07-31T17:28:48.989Z,9.93
2022-07-31T17:31:16.074Z,10.55
2022-07-31T17:33:55.820Z,12.95
2022-07-31T17:36:27.479Z,12.40
2022-07-31T17:38:54.575Z,11.52
2022-07-31T17:41:24.819Z,11.35
2022-07-31T17:43:53.629Z,15.73
2022-07-31T17:46:28.112Z,11.73
2022-07-31T17:49:02.062Z,12.30
2022-07-31T17:51:29.319Z,16.55
2022-07-31T17:53:59.222Z,13.95
2022-07-31T17:56:27.052Z,11.15
2022-07-31T17:58:55.612Z,11.88
2022-07-31T18:01:28.500Z,11.57
2022-07-31T18:03:56.177Z,12.23
2022-07-31T18:06:23.273Z,17.35
2022-07-31T18:08:50.478Z,13.52
2022-07-31T18:11:17.828Z,11.82
2022-07-31T18:13:47.935Z,16.63
2022-07-31T18:16:15.733Z,14.05
2022-07-31T18:18:42.807Z,13.02
2022-07-31T18:21:09.989Z,13.93
2022-07-31T18:23:37.070Z,12.35
2022-07-31T18:26:10.790Z,15.07
2022-07-31T18:28:38.250Z,14.68
2022-07-31T18:31:05.350Z,13.90
2022-07-31T18:33:54.738Z,14.40
2022-07-31T18:36:21.898Z,14.45
2022-07-31T18:38:49.014Z,14.40
2022-07-31T18:41:16.906Z,15.70
2022-07-31T18:43:44.074Z,14.00
2022-07-31T18:46:11.210Z,15.65
2022-07-31T18:48:38.338Z,15.13
2022-07-31T18:51:05.752Z,15.63
2022-07-31T18:53:33.473Z,14.82
2022-07-31T18:56:00.727Z,13.10
2022-07-31T18:58:27.897Z,19.27
2022-07-31T19:00:55.615Z,15.18
2022-07-31T19:03:25.581Z,15.17
2022-07-31T19:05:53.178Z,17.20
2022-07-31T19:08:20.836Z,16.35
2022-07-31T19:10:53.323Z,17.00
2022-07-31T19:13:21.529Z,14.50
2022-07-31T19:15:49.230Z,16.67
2022-07-31T19:18:18.577Z,17.63
2022-07-31T19:20:58.985Z,16.25
2022-07-31T19:23:39.509Z,16.45
2022-07-31T19:26:06.962Z,20.08
2022-07-31T19:28:34.167Z,15.47
2022-07-31T19:31:01.384Z,12.40
2022-07-31T19:33:28.529Z,16.40
2022-07-31T19:36:01.256Z,17.80
2022-07-31T19:38:31.887Z,19.13
2022-07-31T19:40:59.080Z,18.00
2022-07-31T19:43:26.555Z,17.55
2022-07-31T19:46:02.486Z,16.83
2022-07-31T19:48:43.366Z,15.40
2022-07-31T19:51:11.184Z,21.10
2022-07-31T19:53:38.379Z,18.80
2022-07-31T19:56:06.148Z,19.58
2022-07-31T19:58:34.537Z,20.90
2022-07-31T20:01:01.776Z,17.73
2022-07-31T20:03:29.561Z,21.33
2022-07-31T20:05:56.860Z,16.37
2022-07-31T20:08:24.130Z,18.20
2022-07-31T20:10:51.458Z,17.92
2022-07-31T20:13:18.801Z,21.15
2022-07-31T20:15:51.682Z,22.60
2022-07-31T20:18:28.001Z,23.53
2022-07-31T20:20:57.026Z,21.40
2022-07-31T20:23:24.489Z,18.50
2022-07-31T20:25:51.566Z,23.30
2022-07-31T20:28:24.589Z,21.38
2022-07-31T20:30:51.761Z,20.47
2022-07-31T20:33:19.171Z,19.48
2022-07-31T20:35:50.386Z,21.88
2022-07-31T20:38:20.783Z,25.17
2022-07-31T20:40:53.514Z,21.27
2022-07-31T20:43:21.419Z,18.30
2022-07-31T20:45:48.592Z,22.33
2022-07-31T20:48:19.129Z,23.30
2022-07-31T20:50:48.199Z,22.23
2022-07-31T20:53:15.998Z,17.02
2022-07-31T20:55:47.092Z,21.00
2022-07-31T20:58:14.421Z,16.67
2022-07-31T21:00:41.804Z,17.00
2022-07-31T21:03:09.234Z,19.65
2022-07-31T21:05:36.317Z,19.90
2022-07-31T21:08:03.523Z,18.97
2022-07-31T21:10:34.037Z,15.38
2022-07-31T21:13:01.162Z,19.33
2022-07-31T21:15:41.752Z,16.13
2022-07-31T21:18:11.186Z,15.77
2022-07-31T21:20:52.515Z,16.00
2022-07-31T21:23:24.737Z,15.48
2022-07-31T21:25:52.664Z,13.82
2022-07-31T21:28:20.102Z,16.38
2022-07-31T21:30:47.297Z,18.95
2022-07-31T21:33:14.665Z,13.63
2022-07-31T21:35:41.932Z,15.35
2022-07-31T21:38:12.237Z,17.13
2022-07-31T21:40:39.692Z,13.45
2022-07-31T21:43:06.982Z,16.15
2022-07-31T21:45:50.603Z,13.73
2022-07-31T21:48:23.051Z,14.48
2022-07-31T21:50:50.298Z,13.05
2022-07-31T21:53:17.445Z,16.10
2022-07-31T21:55:44.923Z,12.48
2022-07-31T21:58:12.029Z,12.60
2022-07-31T22:00:39.182Z,14.15
2022-07-31T22:03:06.447Z,18.10
2022-07-31T22:05:52.763Z,14.43
2022-07-31T22:08:19.893Z,12.13
2022-07-31T22:10:47.545Z,12.57
2022-07-31T22:13:14.645Z,10.02
2022-07-31T22:15:51.583Z,13.38
2022-07-31T22:18:28.619Z,13.50
2022-07-31T22:20:56.007Z,9.88
2022-07-31T22:23:23.312Z,12.27
2022-07-31T22:25:50.585Z,11.02
2022-07-31T22:28:19.462Z,11.10
2022-07-31T22:30:46.825Z,10.75
2022-07-31T22:33:15.292Z,10.93
2022-07-31T22:35:42.734Z,9.30
2022-07-31T22:38:11.486Z,10.65
2022-07-31T22:40:38.828Z,9.45
2022-07-31T22:44:09.558Z,8.77
2022-07-31T22:45:54.467Z,10.73
2022-07-31T22:48:22.133Z,9.20
2022-07-31T22:50:49.603Z,10.25
2022-07-31T22:53:17.491Z,11.43
2022-07-31T22:55:44.562Z,10.85
2022-07-31T22:58:14.886Z,9.88
2022-07-31T23:00:42.993Z,10.60
2022-07-31T23:03:10.182Z,10.93
2022-07-31T23:06:02.853Z,10.38
2022-07-31T23:08:24.345Z,10.98
2022-07-31T23:10:51.475Z,9.43
2022-07-31T23:13:18.552Z,8.30
2022-07-31T23:15:45.701Z,9.02
2022-07-31T23:18:12.808Z,8.57
2022-07-31T23:20:39.890Z,10.07
2022-07-31T23:23:06.983Z,8.05
2022-07-31T23:25:34.175Z,10.17
2022-07-31T23:28:01.290Z,7.60
2022-07-31T23:30:28.421Z,9.05
2022-07-31T23:32:55.496Z,11.43
2022-07-31T23:35:22.623Z,8.75
2022-07-31T23:37:49.731Z,9.10
2022-07-31T23:40:16.891Z,8.20
2022-07-31T23:42:44.032Z,9.93
2022-07-31T23:45:12.801Z,7.85
2022-07-31T23:47:45.927Z,9.00
2022-07-31T23:50:13.614Z,9.13
2022-07-31T23:52:40.694Z,9.43
2022-07-31T23:55:08.070Z,7.53
2022-07-31T23:57:36.078Z,8.48
